M I D A S
Marine Information and Data Acquisition System
Tripno 449 of the Zeeleeuw from 2003-03-20 08:16:18 to 2003-03-20 15:41:04
Back to CruiseResearch ActivitiesStationsMapUnderway DataData graphs

EquipmentUnitsComment
TimeDGPSUTC
LatitudeDGPSDM.mWGS84
LongitudeDGPSDM.mWGS84
TemperatureSBE03/SBE38deg celciusITS90
ConductivitySBE21S/mITS90
SalinitySBE21 Practical Salinity Units
ChlorophylAChelsea fluorimeterg/lCalibrated in Aceton
Missing or incorrect values are displayed as -999
Sea surface data collected by the RV Zeeleeuw from 2003-03-20 08:16:18 to 2003-03-20 15:41:04
Time Latitude Longitude Temperature Conductivity Salinity ChlorophylA
2003-03-20 08:17:23 51°13.857 2°55.619 -999 0.043454 0.238649 -0.781249
2003-03-20 08:18:22 51°13.965 2°55.539 -999 0.040855 0.22412 -0.781249
2003-03-20 08:19:22 51°14.091 2°55.447 9.679877 3.131522 22.620445 8.455127
2003-03-20 08:20:22 51°14.216 2°55.334 8.8182 2.785889 26.118509 18.298272
2003-03-20 08:21:23 51°14.316 2°55.166 8.416361 2.673334 25.453719 17.86005
2003-03-20 08:22:23 51°14.427 2°54.968 8.11566 2.679541 25.635718 16.343127
2003-03-20 08:23:22 51°14.57 2°54.786 8.275917 2.889648 28.010529 20.185999
2003-03-20 08:24:23 51°14.736 2°54.611 8.2579 3.020998 29.543021 23.927742
2003-03-20 08:25:23 51°14.915 2°54.45 8.27293 3.068684 30.112518 22.511947
2003-03-20 08:26:23 51°15.084 2°54.279 8.457345 3.084054 30.295101 20.961315
2003-03-20 08:27:22 51°15.254 2°54.113 7.909824 3.085844 30.328873 22.91646
2003-03-20 08:28:23 51°15.445 2°53.946 7.570955 3.090477 30.421614 22.073725
2003-03-20 08:29:21 51°15.634 2°53.794 7.807094 3.090793 30.452379 20.961315
2003-03-20 08:30:23 51°15.84 2°53.614 7.894418 3.074897 30.329219 17.758922
2003-03-20 08:31:22 51°16.039 2°53.443 7.473778 3.070897 30.317433 16.545383
2003-03-20 08:32:23 51°16.242 2°53.262 7.584979 3.087952 30.533426 15.264426
2003-03-20 08:33:23 51°16.439 2°53.094 7.343277 3.103007 30.73889 11.724939
2003-03-20 08:34:22 51°16.634 2°52.938 7.299816 3.114693 30.890976 14.859913
2003-03-20 08:35:23 51°16.83 2°52.784 7.346796 3.141961 31.150405 16.444255
2003-03-20 08:36:23 51°17.015 2°52.645 7.548842 3.159123 31.3144 15.63523
2003-03-20 08:37:23 51°17.213 2°52.582 7.550742 3.173021 31.459822 14.657657
2003-03-20 08:38:23 51°17.415 2°52.55 7.689231 3.179233 31.543817 13.747503
2003-03-20 08:39:23 51°17.621 2°52.519 7.522775 3.17081 31.465513 13.107024
2003-03-20 08:40:23 51°17.826 2°52.505 7.484214 3.175759 31.521459 13.983469
2003-03-20 08:41:23 51°18.012 2°52.604 7.75477 3.173127 31.492539 13.882341
2003-03-20 08:42:23 51°18.153 2°52.828 7.451631 3.153648 31.297483 12.668802
2003-03-20 08:43:22 51°18.278 2°53.076 7.516877 3.143435 31.205707 13.309281
2003-03-20 08:44:23 51°18.406 2°53.331 7.336239 3.131644 31.09183 14.152016
2003-03-20 08:45:23 51°18.532 2°53.577 7.726162 3.101955 30.784516 14.084597
2003-03-20 08:46:22 51°18.64 2°53.835 7.357302 3.088795 30.649377 14.152016
2003-03-20 08:47:23 51°18.727 2°54.121 7.820775 3.069741 30.454196 14.387982
2003-03-20 08:48:23 51°18.817 2°54.399 7.931667 3.059424 30.348719 14.725076
2003-03-20 08:49:23 51°18.906 2°54.682 7.569884 3.048582 30.236717 15.399264
2003-03-20 08:50:21 51°18.993 2°54.957 7.471778 3.031213 30.05625 15.432973
2003-03-20 08:51:23 51°19.086 2°55.247 7.341518 3.02195 29.966861 14.859913
2003-03-20 08:52:22 51°19.174 2°55.522 7.14558 3.01395 29.886013 14.758785
2003-03-20 08:53:23 51°19.269 2°55.806 6.135883 3.013635 29.881049 16.781349
2003-03-20 08:54:23 51°19.358 2°56.079 6.130852 3.011319 29.852679 14.725076
2003-03-20 08:55:23 51°19.448 2°56.354 6.133243 3.006793 29.807626 12.466546
2003-03-20 08:56:23 51°19.531 2°56.634 6.12084 3.002688 29.759682 15.02846
2003-03-20 08:57:23 51°19.612 2°56.911 6.106889 2.996583 29.710826 11.219298
2003-03-20 08:58:23 51°19.69 2°57.187 6.105842 2.99332 29.684079 10.983332
2003-03-20 08:59:23 51°19.77 2°57.462 6.099264 2.988373 29.638128 10.781076
2003-03-20 09:00:23 51°19.851 2°57.739 6.094978 2.996899 29.730022 10.679947
2003-03-20 09:01:23 51°19.931 2°58.017 6.094579 2.999215 29.758395 10.781076
2003-03-20 09:02:23 51°20.012 2°58.295 6.095327 2.996057 29.726044 10.781076
2003-03-20 09:03:23 51°20.093 2°58.576 6.09737 2.992689 29.681653 11.050751
2003-03-20 09:04:23 51°20.176 2°58.86 6.084112 2.998057 29.744958 11.185589
2003-03-20 09:05:23 51°20.26 2°59.143 6.083813 2.998794 29.765795 11.69123
2003-03-20 09:06:23 51°20.344 2°59.424 6.080972 2.991636 29.687345 11.488973
2003-03-20 09:07:23 51°20.426 2°59.703 6.076136 2.989426 29.663123 10.814785
2003-03-20 09:08:23 51°20.51 2°59.983 6.081121 2.986268 29.635256 10.646238
2003-03-20 09:09:23 51°20.59 3°0.266 6.082916 2.989531 29.665774 10.781076
2003-03-20 09:10:23 51°20.67 3°0.551 6.080174 2.988689 29.647569 10.241725
2003-03-20 09:11:23 51°20.749 3°0.836 6.074042 2.983953 29.608388 9.938341
2003-03-20 09:12:23 51°20.821 3°1.13 6.070901 2.986058 29.633697 9.837212
2003-03-20 09:13:23 51°20.894 3°1.422 6.077831 2.983637 29.608664 9.668665
2003-03-20 09:14:23 51°20.965 3°1.718 6.074541 2.98269 29.592309 9.702375
2003-03-20 09:15:23 51°21.038 3°2.014 6.073892 2.990057 29.674536 9.769794
2003-03-20 09:16:23 51°21.113 3°2.312 6.07823 2.988584 29.659136 10.713657
2003-03-20 09:17:23 51°21.189 3°2.613 6.067411 3.005004 29.839155 11.050751
2003-03-20 09:18:22 51°21.267 3°2.909 6.066663 3.005109 29.84709 11.08446
2003-03-20 09:19:23 51°21.347 3°3.215 6.071001 3.011951 29.918383 11.08446
2003-03-20 09:20:22 51°21.425 3°3.512 6.063322 3.018793 29.991197 11.11817
2003-03-20 09:21:23 51°21.505 3°3.821 6.057488 3.020898 30.02264 11.050751
2003-03-20 09:22:23 51°21.582 3°4.125 6.051553 3.013004 29.942026 10.915913
2003-03-20 09:23:22 51°21.652 3°4.429 6.049408 3.023004 30.05638 10.949623
2003-03-20 09:24:23 51°21.725 3°4.745 6.043323 3.025004 30.07911 10.106888
2003-03-20 09:25:23 51°21.795 3°5.057 6.041478 3.025425 30.090576 9.870922
2003-03-20 09:26:23 51°21.867 3°5.371 6.040131 3.034056 30.183919 10.241725
2003-03-20 09:27:23 51°21.933 3°5.686 6.041378 3.032583 30.166958 10.848494
2003-03-20 09:28:23 51°22 3°6.001 6.027559 3.042899 30.28726 9.668665
2003-03-20 09:29:23 51°22.069 3°6.318 6.020175 3.047004 30.340856 9.297862
2003-03-20 09:30:23 51°22.138 3°6.634 6.025015 3.056478 30.446678 9.533828
2003-03-20 09:31:23 51°22.207 3°6.95 6.049408 3.060268 30.483783 8.792221
2003-03-20 09:32:23 51°22.276 3°7.264 6.077532 3.056478 30.423604 7.949486
2003-03-20 09:33:23 51°22.344 3°7.581 6.080623 3.055004 30.369801 7.275298
2003-03-20 09:34:22 51°22.409 3°7.893 6.02731 3.048478 30.327941 7.578683
2003-03-20 09:35:23 51°22.479 3°8.213 6.036789 3.044162 30.309581 7.578683
2003-03-20 09:36:23 51°22.545 3°8.523 6.054695 3.032162 30.166903 7.477554
2003-03-20 09:37:23 51°22.606 3°8.828 6.080872 3.024583 30.070686 7.679811
2003-03-20 09:38:23 51°22.629 3°9.087 6.079875 3.019003 29.981399 8.320289
2003-03-20 09:39:23 51°22.653 3°9.264 6.099663 3.01174 29.900223 7.915777
2003-03-20 09:40:23 51°22.673 3°9.372 6.160583 3.008793 29.857358 7.780939
2003-03-20 09:41:23 51°22.686 3°9.441 6.225523 3.000793 29.700042 6.668529
2003-03-20 09:42:23 51°22.7 3°9.472 6.227413 2.996055 29.600624 6.095469
2003-03-20 09:43:23 51°22.707 3°9.488 6.165063 2.997214 29.635582 6.499982
2003-03-20 09:44:23 51°22.71 3°9.5 6.160732 3.001319 29.719251 6.769657
2003-03-20 09:45:23 51°22.715 3°9.507 6.184128 2.996688 29.65592 5.926922
2003-03-20 09:46:23 51°22.719 3°9.514 6.131151 2.998372 29.687022 6.668529
2003-03-20 09:47:23 51°22.72 3°9.522 6.128611 2.998793 29.716306 6.837076
2003-03-20 09:48:23 51°22.719 3°9.524 6.179201 2.996583 29.682397 6.5674
2003-03-20 09:49:23 51°22.715 3°9.522 6.218261 2.994056 29.598128 5.623537
2003-03-20 09:50:22 51°22.715 3°9.517 6.182834 2.994582 29.613547 6.432563
2003-03-20 09:51:23 51°22.716 3°9.504 6.182336 2.992477 29.600231 6.668529
2003-03-20 09:52:23 51°22.719 3°9.495 6.210301 2.992582 29.581298 5.623537
2003-03-20 09:53:23 51°22.722 3°9.49 6.207068 2.997214 29.643031 5.859503
2003-03-20 09:54:23 51°22.725 3°9.487 6.285378 2.99795 29.633202 5.657247
2003-03-20 09:55:23 51°22.73 3°9.487 6.24253 2.996055 29.558322 5.724665
2003-03-20 09:56:23 51°22.736 3°9.487 6.207764 2.994792 29.591301 6.634819
2003-03-20 09:57:23 51°22.74 3°9.485 6.217216 2.993003 29.591099 6.668529
2003-03-20 09:58:23 51°22.743 3°9.479 6.257446 2.992161 29.555167 5.387571
2003-03-20 09:59:23 51°22.745 3°9.472 6.284135 2.993529 29.54191 4.679674
2003-03-20 10:00:23 51°22.746 3°9.465 6.279415 2.994792 29.534195 4.443708
2003-03-20 10:01:23 51°22.746 3°9.461 6.164466 2.99574 29.581581 5.758375
2003-03-20 10:02:23 51°22.742 3°9.459 6.164864 2.998898 29.695019 6.735947
2003-03-20 10:03:22 51°22.734 3°9.458 6.161728 2.995003 29.622613 6.533691
2003-03-20 10:04:23 51°22.726 3°9.458 6.162624 3.001214 29.722588 6.769657
2003-03-20 10:05:23 51°22.717 3°9.468 6.150525 3.003424 29.737037 6.803366
2003-03-20 10:06:23 51°22.698 3°9.486 6.138025 2.997109 29.678439 6.803366
2003-03-20 10:07:23 51°22.668 3°9.499 6.151521 2.993425 29.64711 6.904494
2003-03-20 10:08:23 51°22.632 3°9.501 6.181888 2.990162 29.58833 6.735947
2003-03-20 10:09:23 51°22.592 3°9.492 6.197067 2.98953 29.57399 6.432563
2003-03-20 10:10:23 51°22.552 3°9.468 6.172033 2.991214 29.581972 6.466272
2003-03-20 10:11:23 51°22.513 3°9.433 6.15401 2.991425 29.610327 6.735947
2003-03-20 10:12:23 51°22.48 3°9.383 6.166607 2.987846 29.571956 6.499982
2003-03-20 10:13:23 51°22.455 3°9.322 6.153911 2.985636 29.520314 6.365144
2003-03-20 10:14:23 51°22.436 3°9.256 6.250734 2.983847 29.531963 6.735947
2003-03-20 10:15:23 51°22.424 3°9.178 6.179101 2.986373 29.548416 6.668529
2003-03-20 10:16:22 51°22.45 3°9.085 6.172381 2.988688 29.562561 6.668529
2003-03-20 10:17:23 51°22.514 3°8.965 6.103949 2.987847 29.611454 7.005623
2003-03-20 10:18:23 51°22.614 3°8.823 6.128511 2.990373 29.631633 6.837076
2003-03-20 10:19:23 51°22.721 3°8.676 6.114014 3.005635 29.763457 6.769657
2003-03-20 10:20:23 51°22.837 3°8.534 6.125473 3.016371 29.909519 6.803366
2003-03-20 10:21:23 51°22.978 3°8.382 6.096174 3.020582 29.971499 6.297725
2003-03-20 10:22:23 51°23.159 3°8.226 6.122832 3.017214 29.945902 6.297725
2003-03-20 10:23:23 51°23.367 3°8.125 6.061327 3.009319 29.881213 6.365144
2003-03-20 10:24:23 51°23.581 3°8.013 6.10649 3.007741 29.871435 6.230306
2003-03-20 10:25:23 51°23.784 3°7.844 6.113366 3.010162 29.900259 6.432563
2003-03-20 10:26:23 51°23.967 3°7.615 6.104895 3.020687 29.989284 6.398853
2003-03-20 10:27:23 51°24.094 3°7.336 5.999414 3.080585 30.694405 8.691093
2003-03-20 10:28:23 51°24.148 3°7.081 5.996468 3.091008 30.832622 8.82593
2003-03-20 10:29:23 51°24.254 3°7.024 6.030752 3.106168 31.004605 8.556255
2003-03-20 10:30:23 51°24.266 3°7.057 5.991776 3.115222 31.11324 8.488836
2003-03-20 10:31:23 51°24.263 3°7.088 5.972753 3.117854 31.145472 8.589965
2003-03-20 10:32:23 51°24.256 3°7.107 6.015434 3.115327 31.138041 9.230443
2003-03-20 10:33:23 51°24.249 3°7.122 6.019576 3.117749 31.15377 8.118033
2003-03-20 10:34:23 51°24.245 3°7.134 5.971056 3.115433 31.134474 8.960768
2003-03-20 10:35:23 51°24.24 3°7.143 5.989629 3.118065 31.159627 8.118033
2003-03-20 10:36:23 51°24.237 3°7.149 5.969607 3.120065 31.177005 8.084324
2003-03-20 10:37:23 51°24.232 3°7.154 6.010544 3.119118 31.174423 8.084324
2003-03-20 10:38:23 51°24.228 3°7.157 5.971555 3.117749 31.164026 8.589965
2003-03-20 10:39:23 51°24.225 3°7.157 5.980343 3.118486 31.167439 8.623674
2003-03-20 10:40:23 51°24.222 3°7.159 5.977897 3.119539 31.172765 8.252871
2003-03-20 10:41:23 51°24.219 3°7.159 5.987932 3.118907 31.169727 8.589965
2003-03-20 10:42:23 51°24.216 3°7.158 5.990878 3.123539 31.209883 7.74723
2003-03-20 10:43:23 51°24.216 3°7.156 5.976598 3.124066 31.218862 7.848358
2003-03-20 10:44:23 51°24.214 3°7.153 5.97545 3.122592 31.212839 8.219161
2003-03-20 10:45:23 51°24.213 3°7.145 5.973453 3.122381 31.211301 8.252871
2003-03-20 10:46:23 51°24.212 3°7.137 5.986434 3.125224 31.234038 7.71352
2003-03-20 10:47:23 51°24.21 3°7.125 5.978745 3.126908 31.254246 7.477554
2003-03-20 10:48:23 51°24.209 3°7.113 5.98943 3.127645 31.266353 7.039332
2003-03-20 10:49:23 51°24.212 3°7.102 6.075388 3.130383 31.282374 6.769657
2003-03-20 10:50:25 51°24.216 3°7.09 5.974601 3.130909 31.286611 6.702238
2003-03-20 10:51:25 51°24.22 3°7.075 6.012789 3.129435 31.281397 6.365144
2003-03-20 10:52:25 51°24.226 3°7.06 6.010294 3.131225 31.287728 6.264016
2003-03-20 10:53:25 51°24.232 3°7.041 6.039981 3.131646 31.281302 5.825794
2003-03-20 10:54:25 51°24.244 3°7.022 6.016282 3.129962 31.284051 6.971913
2003-03-20 10:55:25 51°24.262 3°7.008 5.971755 3.128488 31.281213 7.71352
2003-03-20 10:56:25 51°24.281 3°7.008 6.022869 3.128909 31.281911 7.71352
2003-03-20 10:57:25 51°24.302 3°7.023 5.973103 3.129225 31.287781 7.848358
2003-03-20 10:58:25 51°24.317 3°7.045 5.97545 3.130067 31.294721 7.71352
2003-03-20 10:59:25 51°24.331 3°7.072 6.101955 3.13133 31.307904 7.646101
2003-03-20 11:00:25 51°24.374 3°7.093 5.987033 3.132699 31.314324 6.803366
2003-03-20 11:01:25 51°24.452 3°7.104 5.97565 3.134489 31.337293 7.814648
2003-03-20 11:02:25 51°24.551 3°7.126 5.977497 3.137542 31.37663 9.297862
2003-03-20 11:03:25 51°24.671 3°7.157 6.028657 3.14607 31.456679 9.736084
2003-03-20 11:04:25 51°24.797 3°7.189 6.042525 3.150176 31.503713 10.915913
2003-03-20 11:05:25 51°24.921 3°7.223 6.016432 3.159863 31.590154 11.354136
2003-03-20 11:06:25 51°25.046 3°7.276 6.027859 3.164074 31.626362 11.893486
2003-03-20 11:07:25 51°25.178 3°7.331 6.034793 3.165232 31.630379 11.826067
2003-03-20 11:08:25 51°25.305 3°7.39 6.037587 3.164495 31.615834 11.421554
2003-03-20 11:09:25 51°25.433 3°7.454 6.04033 3.161863 31.58513 11.253007
2003-03-20 11:10:25 51°25.562 3°7.516 6.040031 3.161547 31.580042 11.017042
2003-03-20 11:11:25 51°25.692 3°7.578 6.079725 3.158704 31.549411 10.882204
2003-03-20 11:12:25 51°25.822 3°7.638 6.119096 3.157546 31.537405 10.915913
2003-03-20 11:13:25 51°25.952 3°7.699 6.039283 3.156283 31.525032 10.612529
2003-03-20 11:14:25 51°26.081 3°7.762 6.036589 3.156072 31.522704 10.54511
2003-03-20 11:15:25 51°26.202 3°7.823 6.081171 3.15544 31.512536 10.376563
2003-03-20 11:16:25 51°26.307 3°7.879 6.081819 3.156493 31.523377 9.769794
2003-03-20 11:17:25 51°26.396 3°7.929 6.043273 3.15702 31.529196 9.331571
2003-03-20 11:18:25 51°26.459 3°7.966 6.038385 3.157546 31.535812 9.163024
2003-03-20 11:19:25 51°26.513 3°7.997 6.038036 3.157862 31.541694 8.85964
2003-03-20 11:20:25 51°26.562 3°8.029 6.037587 3.158388 31.54592 8.118033
2003-03-20 11:21:25 51°26.61 3°8.058 6.034644 3.157862 31.543288 8.118033
2003-03-20 11:22:25 51°26.658 3°8.085 6.075637 3.159336 31.562776 8.455127
2003-03-20 11:23:25 51°26.706 3°8.112 6.071599 3.159231 31.558421 7.814648
2003-03-20 11:24:25 51°26.754 3°8.141 6.030303 3.157862 31.548869 8.118033
2003-03-20 11:25:25 51°26.803 3°8.169 6.034095 3.159547 31.569891 7.578683
2003-03-20 11:26:25 51°26.851 3°8.197 6.035492 3.159757 31.566635 6.904494
2003-03-20 11:27:25 51°26.899 3°8.224 6.040929 3.159231 31.557623 6.331435
2003-03-20 11:28:25 51°26.948 3°8.252 6.034344 3.158494 31.547881 6.5674
2003-03-20 11:29:25 51°26.996 3°8.28 6.041428 3.159231 31.560016 6.432563
2003-03-20 11:30:25 51°27.044 3°8.308 6.027609 3.160178 31.566505 6.061759
2003-03-20 11:31:25 51°27.091 3°8.334 6.057238 3.161863 31.597107 5.859503
2003-03-20 11:32:25 51°27.136 3°8.363 6.056241 3.158388 31.536357 5.353862
2003-03-20 11:33:25 51°27.183 3°8.392 6.053348 3.159125 31.546096 5.556118
2003-03-20 11:34:25 51°27.23 3°8.42 6.037387 3.158915 31.550942 5.185315
2003-03-20 11:35:25 51°27.276 3°8.45 6.062125 3.157651 31.532992 4.612255
2003-03-20 11:36:25 51°27.324 3°8.479 6.047613 3.155545 31.498578 4.511127
2003-03-20 11:37:25 51°27.37 3°8.508 6.08147 3.157546 31.531031 4.106614
2003-03-20 11:38:25 51°27.418 3°8.536 6.066563 3.158704 31.543035 3.904358
2003-03-20 11:39:25 51°27.468 3°8.568 6.060081 3.158704 31.534272 3.836939
2003-03-20 11:40:25 51°27.52 3°8.599 6.043672 3.161442 31.570103 3.735811
2003-03-20 11:41:25 51°27.573 3°8.632 6.02706 3.163548 31.610947 3.836939
2003-03-20 11:42:25 51°27.626 3°8.664 6.035891 3.164706 31.631752 3.668392
2003-03-20 11:43:25 51°27.676 3°8.7 6.052251 3.165653 31.638237 3.466136
2003-03-20 11:44:25 51°27.725 3°8.749 6.038884 3.168286 31.688187 4.039195
2003-03-20 11:45:25 51°27.768 3°8.821 5.986334 3.170181 31.721208 4.511127
2003-03-20 11:46:25 51°27.818 3°8.895 6.014686 3.171971 31.748267 3.80323
2003-03-20 11:47:25 51°27.877 3°8.991 6.019925 3.174182 31.763118 3.80323
2003-03-20 11:48:25 51°27.935 3°9.106 5.974351 3.175657 31.801179 3.499845
2003-03-20 11:49:25 51°28.008 3°9.196 6.022021 3.176499 31.809711 3.263879
2003-03-20 11:50:25 51°28.095 3°9.206 5.970556 3.178289 31.8352 2.6234
2003-03-20 11:51:25 51°28.145 3°9.133 6.0073 3.178816 31.842652 2.724529
2003-03-20 11:52:25 51°28.134 3°9.11 5.98898 3.179447 31.852079 3.365007
2003-03-20 11:53:25 51°28.125 3°9.08 5.956772 3.178395 31.859772 4.645965
2003-03-20 11:54:25 51°28.115 3°9.058 5.941936 3.178605 31.857263 4.511127
2003-03-20 11:55:25 51°28.109 3°9.043 6.01728 3.177868 31.857968 4.747093
2003-03-20 11:56:25 51°28.103 3°9.038 5.933342 3.177974 31.856713 4.679674
2003-03-20 11:57:25 51°28.105 3°9.037 5.984887 3.178395 31.859772 4.544836
2003-03-20 11:58:25 51°28.174 3°9.035 5.951427 3.179763 31.865269 4.275161
2003-03-20 11:59:25 51°28.211 3°9.025 5.985236 3.179974 31.87326 3.80323
2003-03-20 12:00:25 51°28.206 3°9.006 5.941636 3.180079 31.877661 4.409999
2003-03-20 12:01:25 51°28.198 3°8.992 5.945632 3.180816 31.872913 3.735811
2003-03-20 12:02:25 51°28.189 3°8.982 5.938788 3.180079 31.879277 4.645965
2003-03-20 12:03:25 51°28.181 3°8.978 5.98908 3.179553 31.878283 4.544836
2003-03-20 12:04:25 51°28.172 3°8.977 5.937889 3.180922 31.881352 4.174033
2003-03-20 12:05:25 51°28.163 3°8.976 5.953325 3.180079 31.880085 4.409999
2003-03-20 12:06:25 51°28.154 3°8.976 5.946732 3.180816 31.883416 4.308871
2003-03-20 12:07:25 51°28.144 3°8.977 5.945632 3.181132 31.882073 4.275161
2003-03-20 12:08:25 51°28.135 3°8.981 5.934741 3.180711 31.883056 4.443708
2003-03-20 12:09:25 51°28.127 3°8.985 5.937389 3.18029 31.883231 4.409999
2003-03-20 12:10:25 51°28.117 3°8.993 5.944883 3.18029 31.884039 4.713383
2003-03-20 12:11:25 51°28.108 3°9.002 5.934541 3.180711 31.883056 4.544836
2003-03-20 12:12:25 51°28.1 3°9.011 5.945383 3.181132 31.882073 4.275161
2003-03-20 12:13:25 51°28.09 3°9.017 5.945582 3.181343 31.886834 4.612255
2003-03-20 12:14:25 51°28.083 3°9.02 6.008248 3.182501 31.885141 4.174033
2003-03-20 12:15:25 51°28.086 3°9.02 5.95882 3.182712 31.890708 4.376289
2003-03-20 12:16:25 51°28.103 3°9.02 5.954175 3.18208 31.893396 4.34258
2003-03-20 12:17:26 51°28.125 3°9.032 5.947531 3.182291 31.896542 3.836939
2003-03-20 12:18:25 51°28.146 3°9.056 5.940836 3.182185 31.899416 3.836939
2003-03-20 12:19:25 51°28.163 3°9.09 6.026611 3.181659 31.896807 4.072905
2003-03-20 12:20:25 51°28.178 3°9.132 5.989979 3.182712 31.897174 3.600973
2003-03-20 12:21:25 51°28.188 3°9.177 5.939587 3.182396 31.905797 3.904358
2003-03-20 12:22:25 51°28.191 3°9.222 5.942835 3.183238 31.902207 3.938067
2003-03-20 12:23:25 51°28.19 3°9.269 5.971255 3.182291 31.907055 4.241452
2003-03-20 12:24:25 51°28.255 3°9.307 5.957122 3.183238 31.910293 3.735811
2003-03-20 12:25:25 51°28.313 3°9.09 6.001759 3.184502 31.909759 2.690819
2003-03-20 12:26:25 51°28.347 3°8.753 5.947231 3.18566 31.926654 3.80323
2003-03-20 12:27:25 51°28.382 3°8.415 5.941536 3.185976 31.944729 4.039195
2003-03-20 12:28:25 51°28.41 3°8.076 5.93634 3.186292 31.957148 3.836939
2003-03-20 12:29:25 51°28.44 3°7.733 5.96761 3.189872 32.002589 4.005486
2003-03-20 12:30:25 51°28.468 3°7.393 5.932193 3.191662 32.022475 3.76952
2003-03-20 12:31:25 51°28.497 3°7.052 5.943085 3.192504 32.026148 3.533554
2003-03-20 12:32:25 51°28.513 3°6.706 5.947731 3.194505 32.035374 3.23017
2003-03-20 12:33:25 51°28.527 3°6.362 5.923947 3.196611 32.037647 2.488563
2003-03-20 12:34:25 51°28.526 3°6.019 5.947331 3.197769 32.097663 2.893076
2003-03-20 12:35:25 51°28.524 3°5.678 5.93544 3.198612 32.115175 3.499845
2003-03-20 12:36:26 51°28.526 3°5.332 5.959419 3.199138 32.112065 4.376289
2003-03-20 12:37:27 51°28.53 3°4.987 5.956872 3.195032 32.07293 4.005486
2003-03-20 12:38:26 51°28.534 3°4.655 5.938388 3.199033 32.097051 3.634683
2003-03-20 12:39:27 51°28.558 3°4.312 5.931693 3.199454 32.094406 3.600973
2003-03-20 12:40:27 51°28.593 3°4.074 5.957871 3.198085 32.092218 3.938067
2003-03-20 12:41:27 51°28.609 3°3.931 5.968359 3.200191 32.093644 3.027913
2003-03-20 12:42:27 51°28.642 3°3.864 5.971405 3.199033 32.097865 3.23017
2003-03-20 12:43:26 51°28.671 3°3.819 5.934241 3.198085 32.09466 3.398717
2003-03-20 12:44:26 51°28.682 3°3.813 5.98923 3.199559 32.092321 2.387435
2003-03-20 12:45:26 51°28.688 3°3.826 5.991926 3.203139 32.102795 2.522272
2003-03-20 12:46:26 51°28.695 3°3.841 5.960768 3.199349 32.097305 3.600973
2003-03-20 12:47:26 51°28.704 3°3.858 5.919849 3.197243 32.101585 4.241452
2003-03-20 12:48:26 51°28.711 3°3.879 5.955224 3.19819 32.090132 3.971777
2003-03-20 12:49:26 51°28.722 3°3.894 6.002808 3.199349 32.095677 4.443708
2003-03-20 12:50:26 51°28.732 3°3.903 5.96711 3.19798 32.09919 4.612255
2003-03-20 12:51:26 51°28.74 3°3.906 6.004505 3.202928 32.087456 2.690819
2003-03-20 12:52:26 51°28.739 3°3.903 6.00715 3.204929 32.103965 2.825657
2003-03-20 12:53:26 51°28.731 3°3.899 5.991776 3.200928 32.103457 3.23017
2003-03-20 12:54:26 51°28.721 3°3.899 5.9756 3.203981 32.09264 2.488563
2003-03-20 12:55:26 51°28.713 3°3.894 5.961966 3.199875 32.103968 3.938067
2003-03-20 12:56:26 51°28.709 3°3.884 6.013837 3.200823 32.094966 4.140324
2003-03-20 12:57:26 51°28.71 3°3.873 5.93564 3.199138 32.096593 3.971777
2003-03-20 12:58:26 51°28.711 3°3.862 6.051503 3.198927 32.091812 3.80323
2003-03-20 12:59:26 51°28.709 3°3.861 6.009296 3.202823 32.094412 2.353725
2003-03-20 13:00:26 51°28.704 3°3.862 6.001859 3.203981 32.095889 2.252597
2003-03-20 13:01:26 51°28.697 3°3.868 5.998715 3.206087 32.098131 2.218888
2003-03-20 13:02:26 51°28.687 3°3.879 6.04063 3.204086 32.089747 2.185178
2003-03-20 13:03:26 51°28.675 3°3.896 6.046565 3.208824 32.10981 1.645828
2003-03-20 13:04:26 51°28.662 3°3.917 6.062474 3.207666 32.088862 2.252597
2003-03-20 13:05:26 51°28.652 3°3.944 6.068558 3.207772 32.109503 2.08405
2003-03-20 13:06:26 51°28.642 3°3.974 6.027609 3.20914 32.114123 2.252597
2003-03-20 13:07:26 51°28.634 3°4.005 5.980044 3.203665 32.115146 3.162751
2003-03-20 13:08:26 51°28.625 3°4.032 5.990728 3.203139 32.103608 3.735811
2003-03-20 13:09:26 51°28.613 3°4.051 6.003506 3.20156 32.095832 4.308871
2003-03-20 13:10:26 51°28.602 3°4.061 5.981342 3.200822 32.079522 4.308871
2003-03-20 13:11:26 51°28.595 3°4.063 5.950778 3.202928 32.10371 3.432426
2003-03-20 13:12:26 51°28.593 3°4.062 6.001959 3.201244 32.09883 4.612255
2003-03-20 13:13:26 51°28.598 3°4.058 5.981192 3.207245 32.089872 3.432426
2003-03-20 13:14:26 51°28.608 3°4.049 6.005253 3.201875 32.100965 3.80323
2003-03-20 13:15:26 51°28.626 3°4.04 6.012041 3.203771 32.100053 3.297589
2003-03-20 13:16:26 51°28.65 3°4.04 6.006301 3.204613 32.085844 2.421144
2003-03-20 13:17:26 51°28.679 3°4.043 5.978446 3.205139 32.09493 2.555982
2003-03-20 13:18:26 51°28.696 3°3.987 6.073095 3.205771 32.080024 2.117759
2003-03-20 13:19:26 51°28.565 3°3.9 6.046665 3.211246 32.07423 1.072768
2003-03-20 13:20:26 51°28.371 3°3.804 5.954674 3.202086 32.08867 3.870648
2003-03-20 13:21:26 51°28.182 3°3.666 5.951028 3.197348 32.073452 3.971777
2003-03-20 13:22:26 51°27.996 3°3.521 6.006301 3.199664 32.069103 3.735811
2003-03-20 13:23:26 51°27.811 3°3.379 6.019476 3.197348 32.053135 4.039195
2003-03-20 13:24:26 51°27.626 3°3.236 6.082766 3.198611 32.0193 3.533554
2003-03-20 13:25:26 51°27.443 3°3.092 5.965612 3.195979 32.009554 4.645965
2003-03-20 13:26:26 51°27.263 3°2.954 5.980044 3.191977 31.973274 5.4887
2003-03-20 13:27:26 51°27.081 3°2.816 5.968259 3.188819 31.943901 6.533691
2003-03-20 13:28:26 51°26.898 3°2.677 5.979145 3.184501 31.897637 6.5674
2003-03-20 13:29:26 51°26.717 3°2.533 6.038585 3.186712 31.907616 6.230306
2003-03-20 13:30:26 51°26.536 3°2.396 6.034444 3.183975 31.869201 6.466272
2003-03-20 13:31:26 51°26.355 3°2.252 6.037138 3.184291 31.875121 6.499982
2003-03-20 13:32:26 51°26.174 3°2.11 5.998216 3.184922 31.877283 6.702238
2003-03-20 13:33:26 51°25.993 3°1.97 5.997666 3.185344 31.885984 6.870785
2003-03-20 13:34:26 51°25.811 3°1.828 6.076684 3.183764 31.853164 6.264016
2003-03-20 13:35:26 51°25.628 3°1.689 6.023717 3.186607 31.861288 6.432563
2003-03-20 13:36:26 51°25.444 3°1.548 6.117053 3.185764 31.86646 6.533691
2003-03-20 13:37:26 51°25.259 3°1.407 6.049708 3.186501 31.853682 5.960631
2003-03-20 13:38:26 51°25.074 3°1.266 6.137078 3.186291 31.842501 6.129178
2003-03-20 13:39:26 51°24.89 3°1.123 6.063073 3.186712 31.853598 6.230306
2003-03-20 13:40:26 51°24.703 3°0.977 6.050655 3.1825 31.833532 6.398853
2003-03-20 13:41:26 51°24.518 3°0.831 5.990977 3.178815 31.808811 7.073042
2003-03-20 13:42:26 51°24.327 3°0.699 5.976449 3.175551 31.781499 6.870785
2003-03-20 13:43:26 51°24.131 3°0.593 6.021821 3.171866 31.751119 6.735947
2003-03-20 13:44:26 51°23.93 3°0.51 6.003456 3.16776 31.700001 6.02805
2003-03-20 13:45:26 51°23.717 3°0.508 6.030652 3.163021 31.618711 5.421281
2003-03-20 13:46:26 51°23.509 3°0.475 6.026462 3.15344 31.543032 6.702238
2003-03-20 13:47:26 51°23.366 3°0.317 6.049807 3.144385 31.410219 7.544973
2003-03-20 13:48:26 51°23.333 3°0.211 6.132297 3.135014 31.245838 6.5674
2003-03-20 13:49:26 51°23.302 3°0.134 6.280409 3.132592 31.126484 4.780802
2003-03-20 13:50:26 51°23.264 3°0.041 6.261174 3.131538 31.055562 6.398853
2003-03-20 13:51:26 51°23.246 3°0.027 6.222936 3.118167 30.894182 3.80323
2003-03-20 13:52:26 51°23.249 3°0.041 6.319704 3.113535 30.879047 5.792084
2003-03-20 13:53:26 51°23.259 3°0.059 6.202142 3.115219 30.857234 5.792084
2003-03-20 13:54:26 51°23.269 3°0.068 6.092735 3.110377 30.908054 7.544973
2003-03-20 13:55:26 51°23.273 3°0.064 6.134339 3.106693 30.919702 8.016905
2003-03-20 13:56:26 51°23.275 3°0.064 6.117352 3.105851 30.904977 7.477554
2003-03-20 13:57:26 51°23.278 3°0.076 6.139868 3.104798 30.889497 7.646101
2003-03-20 13:58:26 51°23.279 3°0.088 6.133492 3.104798 30.873933 7.410136
2003-03-20 13:59:26 51°23.276 3°0.094 6.109031 3.103429 30.875217 7.646101
2003-03-20 14:00:26 51°23.278 3°0.11 6.131948 3.103114 30.880304 7.74723
2003-03-20 14:01:26 51°23.256 3°0.062 6.118897 3.103324 30.8834 8.016905
2003-03-20 14:02:26 51°23.23 2°59.985 6.14913 3.10164 30.890566 8.85964
2003-03-20 14:03:26 51°23.239 2°59.967 6.17273 3.102481 30.805782 6.634819
2003-03-20 14:04:26 51°23.245 2°59.97 6.352374 3.098376 30.799438 7.207879
2003-03-20 14:05:26 51°23.248 2°59.983 6.473721 3.10648 30.696866 4.241452
2003-03-20 14:06:26 51°23.255 3°0.006 6.209804 3.109007 30.719869 5.320153
2003-03-20 14:07:26 51°23.263 3°0.025 6.226915 3.105007 30.776248 6.735947
2003-03-20 14:08:26 51°23.265 3°0.039 6.347361 3.102586 30.794545 7.983195
2003-03-20 14:09:26 51°23.271 3°0.051 6.2479 3.101322 30.719666 6.129178
2003-03-20 14:10:26 51°23.292 3°0.058 6.417267 3.101111 30.662746 5.084187
2003-03-20 14:11:26 51°23.319 3°0.07 6.231889 3.107111 30.625627 4.949349
2003-03-20 14:12:26 51°23.334 3°0.083 6.426737 3.105744 30.729561 5.387571
2003-03-20 14:13:26 51°23.31 3°0.079 6.502103 3.109954 30.692606 5.657247
2003-03-20 14:14:26 51°23.257 3°0.011 6.211346 3.101953 30.658137 7.511264
2003-03-20 14:15:26 51°23.252 2°59.96 6.168698 3.088163 30.636284 7.443845
2003-03-20 14:16:26 51°23.265 2°59.933 6.086604 3.085638 30.668719 8.927059
2003-03-20 14:17:26 51°23.283 2°59.924 6.12353 3.079847 30.593535 8.050614
2003-03-20 14:18:26 51°23.307 2°59.93 6.112619 3.081953 30.622829 8.252871
2003-03-20 14:19:26 51°23.333 2°59.944 6.121836 3.081005 30.613192 8.320289
2003-03-20 14:20:26 51°23.36 2°59.963 6.228457 3.086058 30.619348 8.421418
2003-03-20 14:21:26 51°23.4 2°59.967 6.576687 3.092162 30.481739 3.80323
2003-03-20 14:22:26 51°23.475 3°0.001 6.470253 3.100373 30.504253 3.870648
2003-03-20 14:23:26 51°23.533 3°0.095 6.455289 3.10311 30.590418 5.522409
2003-03-20 14:24:26 51°23.565 3°0.197 6.531165 3.106164 30.631347 5.623537
2003-03-20 14:25:26 51°23.569 3°0.317 6.392568 3.112164 30.680719 5.792084
2003-03-20 14:26:26 51°23.456 3°0.424 6.207167 3.108586 30.715267 6.095469
2003-03-20 14:27:26 51°23.256 3°0.45 6.20249 3.088374 30.677932 8.85964
2003-03-20 14:28:26 51°23.06 3°0.373 6.057837 3.087217 30.713159 10.54511
2003-03-20 14:29:26 51°22.899 3°0.186 6.107985 3.082164 30.687764 10.814785
2003-03-20 14:30:26 51°22.741 2°59.994 6.092885 3.0749 30.600089 11.421554
2003-03-20 14:31:26 51°22.581 2°59.806 6.091439 3.071321 30.532202 11.960905
2003-03-20 14:32:26 51°22.418 2°59.614 6.13937 3.068794 30.512132 12.23058
2003-03-20 14:33:26 51°22.262 2°59.409 6.115708 3.06532 30.456287 11.65752
2003-03-20 14:34:26 51°22.11 2°59.202 6.082966 3.060478 30.413074 12.297999
2003-03-20 14:35:26 51°21.961 2°58.984 6.143752 3.056583 30.377954 12.399127
2003-03-20 14:36:26 51°21.836 2°58.735 6.169892 3.053109 30.322975 12.736221
2003-03-20 14:37:26 51°21.713 2°58.485 6.144449 3.052056 30.28852 12.601383
2003-03-20 14:38:26 51°21.59 2°58.235 6.165412 3.046476 30.215162 12.702512
2003-03-20 14:39:26 51°21.463 2°57.99 6.234276 3.045739 30.18885 13.747503
2003-03-20 14:40:26 51°21.337 2°57.745 6.242928 3.045002 30.164086 14.286853
2003-03-20 14:41:26 51°21.21 2°57.502 6.165312 3.046581 30.186684 13.91605
2003-03-20 14:42:26 51°21.084 2°57.258 6.147886 3.045318 30.179683 12.567674
2003-03-20 14:43:26 51°20.956 2°57.013 6.203087 3.041634 30.165892 15.02846
2003-03-20 14:44:26 51°20.819 2°56.778 6.167403 3.040897 30.141882 14.859913
2003-03-20 14:45:26 51°20.68 2°56.542 6.166657 3.041002 30.143035 14.421691
2003-03-20 14:46:26 51°20.541 2°56.309 6.225473 3.036055 30.0775 14.118306
2003-03-20 14:47:26 51°20.404 2°56.075 6.19423 3.034265 30.050355 16.006033
2003-03-20 14:48:26 51°20.266 2°55.837 6.251928 3.03616 30.06202 15.904905
2003-03-20 14:49:26 51°20.13 2°55.6 6.2106 3.037739 30.056633 15.500392
2003-03-20 14:50:26 51°19.992 2°55.364 6.223086 3.039528 30.077709 15.63523
2003-03-20 14:51:27 51°19.821 2°55.181 6.23532 3.041212 30.087059 15.736358
2003-03-20 14:52:26 51°19.645 2°55.024 6.332963 3.045949 30.122967 15.770067
2003-03-20 14:53:26 51°19.467 2°54.857 6.307138 3.049844 30.157213 15.702648
2003-03-20 14:54:26 51°19.29 2°54.687 6.27862 3.056897 30.231265 16.140871
2003-03-20 14:55:26 51°19.109 2°54.521 6.288458 3.070898 30.363024 16.376836
2003-03-20 14:56:26 51°18.925 2°54.375 6.287962 3.0909 30.57025 16.444255
2003-03-20 14:57:26 51°18.739 2°54.225 6.299588 3.103322 30.707682 16.17458
2003-03-20 14:58:26 51°18.554 2°54.073 6.293675 3.117324 30.851681 16.983606
2003-03-20 14:59:26 51°18.37 2°53.922 6.296756 3.127326 30.958093 18.062306
2003-03-20 15:00:26 51°18.183 2°53.78 6.386416 3.134275 31.031091 17.691503
2003-03-20 15:01:27 51°17.988 2°53.655 6.311857 3.138592 31.078378 16.882477
2003-03-20 15:02:26 51°17.798 2°53.536 6.35709 3.14733 31.16555 16.680221
2003-03-20 15:03:27 51°17.599 2°53.418 6.353814 3.15828 31.251129 15.163298
2003-03-20 15:04:26 51°17.4 2°53.331 6.404869 3.166598 31.353997 14.623947
2003-03-20 15:05:26 51°17.194 2°53.256 6.339467 3.165334 31.354273 15.02846
2003-03-20 15:06:26 51°16.981 2°53.234 6.369249 3.168915 31.417908 13.713794
2003-03-20 15:07:26 51°16.769 2°53.296 6.403282 3.195027 31.669726 14.623947
2003-03-20 15:08:27 51°16.562 2°53.448 6.54438 3.210716 31.749019 13.444118
2003-03-20 15:09:26 51°16.356 2°53.566 6.515423 3.201554 31.602207 17.388118
2003-03-20 15:10:26 51°16.15 2°53.67 6.479864 3.17523 31.323252 17.86005
2003-03-20 15:11:26 51°15.945 2°53.78 6.512601 3.167439 31.224186 20.017452
2003-03-20 15:12:26 51°15.735 2°53.896 6.500271 3.155225 31.11964 20.320836
2003-03-20 15:13:26 51°15.527 2°54.019 6.591178 3.141011 30.963015 20.65793
2003-03-20 15:14:26 51°15.323 2°54.16 6.524384 3.139853 30.885733 19.107298
2003-03-20 15:15:26 51°15.151 2°54.326 6.683585 3.145327 30.888491 17.590375
2003-03-20 15:16:26 51°15.002 2°54.536 6.619705 3.17207 31.146018 21.568084
2003-03-20 15:17:26 51°14.871 2°54.704 6.621979 3.171122 31.151165 25.444665
2003-03-20 15:18:26 51°14.776 2°54.803 6.62104 3.172281 31.163758 26.826751
2003-03-20 15:19:26 51°14.687 2°54.893 6.59187 3.152066 30.987865 27.029007
2003-03-20 15:20:26 51°14.53 2°54.972 6.552297 3.139747 30.873839 31.546067
2003-03-20 15:21:26 51°14.358 2°55.077 6.691929 3.123639 30.69256 34.478785
2003-03-20 15:22:26 51°14.253 2°55.274 6.676424 3.043734 29.695218 21.871469
2003-03-20 15:23:26 51°14.148 2°55.393 6.639078 2.960055 28.842019 19.275845
2003-03-20 15:24:26 51°14.059 2°55.459 6.776647 2.882809 28.04405 16.781349
2003-03-20 15:25:26 51°13.983 2°55.515 6.696472 2.854712 27.671554 16.17458
2003-03-20 15:26:26 51°13.893 2°55.582 6.753715 2.824934 27.336732 14.758785
2003-03-20 15:27:26 51°13.81 2°55.643 6.76565 2.802206 27.055123 14.4554
2003-03-20 15:28:27 51°13.749 2°55.7 6.72505 2.791685 26.929978 13.91605
2003-03-20 15:29:26 51°13.707 2°55.767 6.674548 2.827985 27.408533 13.3767
2003-03-20 15:30:27 51°13.672 2°55.847 6.965608 2.817989 27.283589 12.938477
2003-03-20 15:31:26 51°13.639 2°55.926 9.670355 2.761911 26.587673 3.263879
2003-03-20 15:32:26 51°13.613 2°56.012 10.550437 0.651791 5.556039 -0.680121
2003-03-20 15:33:26 51°13.6 2°56.09 11.314673 0.391219 3.221555 -0.680121
2003-03-20 15:34:26 51°13.598 2°56.103 12.434644 0.50439 4.222303 -0.646411
2003-03-20 15:35:26 51°13.597 2°56.103 12.113401 0.531209 4.458527 -0.680121
2003-03-20 15:36:26 51°13.598 2°56.1 11.939855 0.628085 5.325636 -0.680121
2003-03-20 15:37:26 51°13.599 2°56.106 12.167292 0.577552 4.863087 -0.680121
2003-03-20 15:38:26 51°13.598 2°56.106 12.776875 0.432827 3.572166 -0.646411
2003-03-20 15:39:26 51°13.598 2°56.105 12.763383 0.546029 4.572042 -0.680121
2003-03-20 15:40:26 51°13.599 2°56.105 12.845281 0.587574 4.940107 -0.646411